createdAt,value
2018-12-18T00:00:51.134Z,6.59
2018-12-18T00:01:51.110Z,6.59
2018-12-18T00:02:51.272Z,6.6
2018-12-18T00:03:51.149Z,6.62
2018-12-18T00:04:51.096Z,6.6
2018-12-18T00:05:51.188Z,6.58
2018-12-18T00:06:51.168Z,6.58
2018-12-18T00:07:51.173Z,6.59
2018-12-18T00:08:51.107Z,6.59
2018-12-18T00:09:51.165Z,6.59
2018-12-18T00:10:51.100Z,6.6
2018-12-18T00:11:51.330Z,6.59
2018-12-18T00:12:51.114Z,6.59
2018-12-18T00:13:51.172Z,6.59
2018-12-18T00:14:51.335Z,6.6
2018-12-18T00:15:51.548Z,6.59
2018-12-18T00:16:51.384Z,6.58
2018-12-18T00:17:51.518Z,6.59
2018-12-18T00:18:51.098Z,6.6
2018-12-18T00:19:51.394Z,6.58
2018-12-18T00:20:51.198Z,6.59
2018-12-18T00:21:51.247Z,6.59
2018-12-18T00:22:51.156Z,6.58
2018-12-18T00:23:51.312Z,6.58
2018-12-18T00:24:51.474Z,6.59
2018-12-18T00:25:51.074Z,6.58
2018-12-18T00:26:51.245Z,6.57
2018-12-18T00:27:51.224Z,6.58
2018-12-18T00:28:51.079Z,6.56
2018-12-18T00:29:51.442Z,6.57
2018-12-18T00:30:51.232Z,6.58
2018-12-18T00:31:51.272Z,6.57
2018-12-18T00:32:51.044Z,6.56
2018-12-18T00:33:51.159Z,6.57
2018-12-18T00:34:51.263Z,6.55
2018-12-18T00:35:51.146Z,6.56
2018-12-18T00:36:51.893Z,6.58
2018-12-18T00:37:51.354Z,6.6
2018-12-18T00:38:51.190Z,6.62
2018-12-18T00:39:51.870Z,6.62
2018-12-18T00:40:51.407Z,6.61
2018-12-18T00:41:51.200Z,6.6
2018-12-18T00:42:51.282Z,6.59
2018-12-18T00:43:51.388Z,6.6
2018-12-18T00:44:51.412Z,6.58
2018-12-18T00:45:51.400Z,6.58
2018-12-18T00:46:51.305Z,6.57
2018-12-18T00:47:51.484Z,6.56
2018-12-18T00:48:51.174Z,6.56
2018-12-18T00:49:51.129Z,6.57
2018-12-18T00:50:51.218Z,6.57
2018-12-18T00:51:51.226Z,6.58
2018-12-18T00:52:51.358Z,6.57
2018-12-18T00:53:51.107Z,6.56
2018-12-18T00:54:51.078Z,6.56
2018-12-18T00:55:50.997Z,6.54
2018-12-18T00:56:51.080Z,6.54
2018-12-18T00:57:51.235Z,6.54
2018-12-18T00:58:51.083Z,6.52
2018-12-18T00:59:51.284Z,6.53
2018-12-18T01:00:50.999Z,6.52
2018-12-18T01:01:51.165Z,6.52
2018-12-18T01:02:51.075Z,6.52
2018-12-18T01:03:53.272Z,6.52
2018-12-18T01:04:51.101Z,6.51
2018-12-18T01:05:51.168Z,6.51
2018-12-18T01:06:51.401Z,6.53
2018-12-18T01:07:53.804Z,6.54
2018-12-18T01:08:51.094Z,6.52
2018-12-18T01:09:51.186Z,6.52
2018-12-18T01:10:51.115Z,6.5
2018-12-18T01:11:51.134Z,6.51
2018-12-18T01:12:51.750Z,6.52
2018-12-18T01:13:51.163Z,6.53
2018-12-18T01:14:50.991Z,6.52
2018-12-18T01:15:51.125Z,6.52
2018-12-18T01:16:51.205Z,6.5
2018-12-18T01:17:51.875Z,6.5
2018-12-18T01:18:51.549Z,6.51
2018-12-18T01:19:51.085Z,6.51
2018-12-18T01:20:51.123Z,6.5
2018-12-18T01:21:51.088Z,6.49
2018-12-18T01:22:51.059Z,6.49
2018-12-18T01:23:51.000Z,6.47
2018-12-18T01:24:51.173Z,6.47
2018-12-18T01:25:51.063Z,6.47
2018-12-18T01:26:51.095Z,6.46
2018-12-18T01:27:51.076Z,6.46
2018-12-18T01:28:51.099Z,6.46
2018-12-18T01:29:51.073Z,6.46
2018-12-18T01:30:51.057Z,6.45
2018-12-18T01:31:51.079Z,6.45
2018-12-18T01:32:51.131Z,6.45
2018-12-18T01:33:51.102Z,6.44
2018-12-18T01:34:51.054Z,6.44
2018-12-18T01:35:50.933Z,6.42
2018-12-18T01:36:51.082Z,6.41
2018-12-18T01:37:51.124Z,6.41
2018-12-18T01:38:51.096Z,6.42
2018-12-18T01:39:51.062Z,6.41
2018-12-18T01:40:51.074Z,6.41
2018-12-18T01:41:50.928Z,6.41
2018-12-18T01:42:50.980Z,6.4
2018-12-18T01:43:51.132Z,6.38
2018-12-18T01:44:50.958Z,6.37
2018-12-18T01:45:51.071Z,6.37
2018-12-18T01:46:51.031Z,6.36
2018-12-18T01:47:50.969Z,6.36
2018-12-18T01:48:51.232Z,6.36
2018-12-18T01:49:51.067Z,6.34
2018-12-18T01:50:51.193Z,6.35
2018-12-18T01:51:51.137Z,6.34
2018-12-18T01:52:51.005Z,6.33
2018-12-18T01:53:51.075Z,6.29
2018-12-18T01:54:51.185Z,6.26
2018-12-18T01:55:51.265Z,6.23
2018-12-18T01:56:50.914Z,6.22
2018-12-18T01:57:51.075Z,6.21
2018-12-18T01:58:50.926Z,6.2
2018-12-18T01:59:51.004Z,6.2
2018-12-18T02:00:51.126Z,6.2
2018-12-18T02:01:50.923Z,6.2
2018-12-18T02:02:51.782Z,6.2
2018-12-18T02:03:50.965Z,6.2
2018-12-18T02:04:51.190Z,6.19
2018-12-18T02:05:51.185Z,6.19
2018-12-18T02:06:50.886Z,6.21
2018-12-18T02:07:51.315Z,6.21
2018-12-18T02:08:51.000Z,6.21
2018-12-18T02:09:51.173Z,6.19
2018-12-18T02:10:51.111Z,6.19
2018-12-18T02:11:51.200Z,6.18
2018-12-18T02:12:50.940Z,6.19
2018-12-18T02:13:50.966Z,6.17
2018-12-18T02:14:50.910Z,6.17
2018-12-18T02:15:50.874Z,6.17
2018-12-18T02:16:51.126Z,6.16
2018-12-18T02:17:51.145Z,6.17
2018-12-18T02:18:51.193Z,6.16
2018-12-18T02:19:51.300Z,6.13
2018-12-18T02:20:51.147Z,6.12
2018-12-18T02:21:51.088Z,6.09
2018-12-18T02:22:51.171Z,6.08
2018-12-18T02:23:50.883Z,6.06
2018-12-18T02:24:51.369Z,6.07
2018-12-18T02:25:51.034Z,6.07
2018-12-18T02:26:50.908Z,6.07
2018-12-18T02:27:51.149Z,6.06
2018-12-18T02:28:51.073Z,6.05
2018-12-18T02:29:51.234Z,6.05
2018-12-18T02:30:51.058Z,6.04
2018-12-18T02:31:51.241Z,6.04
2018-12-18T02:32:50.927Z,6.03
2018-12-18T02:33:51.005Z,6
2018-12-18T02:34:50.976Z,5.96
2018-12-18T02:35:50.944Z,5.95
2018-12-18T02:36:51.118Z,5.94
2018-12-18T02:37:51.064Z,5.92
2018-12-18T02:38:51.107Z,5.93
2018-12-18T02:39:51.391Z,5.94
2018-12-18T02:40:50.901Z,5.96
2018-12-18T02:41:51.189Z,5.95
2018-12-18T02:42:51.216Z,5.96
2018-12-18T02:43:51.330Z,5.96
2018-12-18T02:44:50.886Z,5.96
2018-12-18T02:45:51.696Z,5.97
2018-12-18T02:46:50.984Z,5.95
2018-12-18T02:47:51.691Z,5.95
2018-12-18T02:48:51.083Z,5.95
2018-12-18T02:49:51.004Z,5.95
2018-12-18T02:50:51.188Z,5.95
2018-12-18T02:51:50.890Z,5.94
2018-12-18T02:52:51.047Z,5.93
2018-12-18T02:53:51.190Z,5.92
2018-12-18T02:54:50.839Z,5.93
2018-12-18T02:55:51.146Z,5.91
2018-12-18T02:56:50.850Z,5.91
2018-12-18T02:57:50.960Z,5.91
2018-12-18T02:58:50.862Z,5.92
2018-12-18T02:59:50.951Z,5.88
2018-12-18T03:00:50.877Z,5.9
2018-12-18T03:01:51.215Z,5.91
2018-12-18T03:02:50.880Z,5.92
2018-12-18T03:03:50.865Z,5.92
2018-12-18T03:04:51.043Z,5.9
2018-12-18T03:05:50.899Z,5.85
2018-12-18T03:06:50.857Z,5.86
2018-12-18T03:07:50.843Z,5.87
2018-12-18T03:08:50.894Z,5.86
2018-12-18T03:09:50.889Z,5.88
2018-12-18T03:10:50.884Z,5.87
2018-12-18T03:11:50.879Z,5.85
2018-12-18T03:12:51.007Z,5.84
2018-12-18T03:13:50.866Z,5.84
2018-12-18T03:14:50.858Z,5.85
2018-12-18T03:15:50.836Z,5.83
2018-12-18T03:16:50.972Z,5.83
2018-12-18T03:17:50.934Z,5.82
2018-12-18T03:18:50.887Z,5.81
2018-12-18T03:19:50.858Z,5.8
2018-12-18T03:20:50.856Z,5.8
2018-12-18T03:21:50.923Z,5.8
2018-12-18T03:22:50.863Z,5.81
2018-12-18T03:23:50.934Z,5.8
2018-12-18T03:24:50.842Z,5.8
2018-12-18T03:25:50.870Z,5.8
2018-12-18T03:26:51.209Z,5.8
2018-12-18T03:27:50.998Z,5.8
2018-12-18T03:28:51.167Z,5.8
2018-12-18T03:29:51.678Z,5.8
2018-12-18T03:30:51.174Z,5.81
2018-12-18T03:31:51.371Z,5.82
2018-12-18T03:32:50.892Z,5.83
2018-12-18T03:33:51.134Z,5.82
2018-12-18T03:34:50.948Z,5.83
2018-12-18T03:35:50.953Z,5.84
2018-12-18T03:36:51.131Z,5.84
2018-12-18T03:37:50.851Z,5.83
2018-12-18T03:38:51.149Z,5.84
2018-12-18T03:39:50.891Z,5.84
2018-12-18T03:40:50.828Z,5.84
2018-12-18T03:41:51.189Z,5.84
2018-12-18T03:42:51.187Z,5.84
2018-12-18T03:43:51.109Z,5.85
2018-12-18T03:44:50.995Z,5.85
2018-12-18T03:45:51.027Z,5.85
2018-12-18T03:46:51.047Z,5.85
2018-12-18T03:47:50.859Z,5.86
2018-12-18T03:48:50.782Z,5.88
2018-12-18T03:49:50.923Z,5.88
2018-12-18T03:50:51.177Z,5.87
2018-12-18T03:51:50.772Z,5.88
2018-12-18T03:52:51.015Z,5.88
2018-12-18T03:53:51.058Z,5.88
2018-12-18T03:54:50.803Z,5.88
2018-12-18T03:55:50.879Z,5.88
2018-12-18T03:56:50.980Z,5.88
2018-12-18T03:57:50.915Z,5.88
2018-12-18T03:58:51.036Z,5.87
2018-12-18T03:59:51.085Z,5.87
2018-12-18T04:00:51.600Z,5.86
2018-12-18T04:01:50.822Z,5.85
2018-12-18T04:02:51.025Z,5.84
2018-12-18T04:03:51.020Z,5.83
2018-12-18T04:04:50.940Z,5.83
2018-12-18T04:05:51.129Z,5.81
2018-12-18T04:06:51.113Z,5.81
2018-12-18T04:07:50.767Z,5.81
2018-12-18T04:08:50.753Z,5.8
2018-12-18T04:09:51.172Z,5.8
2018-12-18T04:10:51.129Z,5.79
2018-12-18T04:11:50.895Z,5.79
2018-12-18T04:12:50.847Z,5.79
2018-12-18T04:13:50.838Z,5.77
2018-12-18T04:14:50.831Z,5.77
2018-12-18T04:15:50.800Z,5.77
2018-12-18T04:16:50.788Z,5.76
2018-12-18T04:17:50.760Z,5.76
2018-12-18T04:18:50.736Z,5.75
2018-12-18T04:19:50.778Z,5.74
2018-12-18T04:20:51.103Z,5.73
2018-12-18T04:21:51.131Z,5.73
2018-12-18T04:22:50.958Z,5.72
2018-12-18T04:23:50.957Z,5.71
2018-12-18T04:24:50.762Z,5.69
2018-12-18T04:25:50.734Z,5.69
2018-12-18T04:26:50.832Z,5.7
2018-12-18T04:27:50.949Z,5.69
2018-12-18T04:28:50.978Z,5.69
2018-12-18T04:29:50.807Z,5.68
2018-12-18T04:30:50.775Z,5.66
2018-12-18T04:31:50.851Z,5.67
2018-12-18T04:32:50.740Z,5.67
2018-12-18T04:33:51.107Z,5.65
2018-12-18T04:34:50.896Z,5.65
2018-12-18T04:35:50.727Z,5.65
2018-12-18T04:36:51.184Z,5.65
2018-12-18T04:37:50.774Z,5.64
2018-12-18T04:38:50.924Z,5.64
2018-12-18T04:39:50.724Z,5.62
2018-12-18T04:40:50.970Z,5.61
2018-12-18T04:41:50.720Z,5.61
2018-12-18T04:42:50.786Z,5.6
2018-12-18T04:43:50.770Z,5.61
2018-12-18T04:44:50.738Z,5.61
2018-12-18T04:45:50.794Z,5.6
2018-12-18T04:46:50.740Z,5.6
2018-12-18T04:47:50.707Z,5.6
2018-12-18T04:48:50.875Z,5.6
2018-12-18T04:49:50.741Z,5.59
2018-12-18T04:50:50.846Z,5.58
2018-12-18T04:51:50.818Z,5.58
2018-12-18T04:52:50.822Z,5.57
2018-12-18T04:53:50.854Z,5.57
2018-12-18T04:54:50.709Z,5.56
2018-12-18T04:55:50.839Z,5.55
2018-12-18T04:56:50.892Z,5.55
2018-12-18T04:57:50.811Z,5.55
2018-12-18T04:58:50.837Z,5.54
2018-12-18T04:59:50.763Z,5.53
2018-12-18T05:00:50.688Z,5.53
2018-12-18T05:01:51.049Z,5.53
2018-12-18T05:02:50.802Z,5.52
2018-12-18T05:03:50.823Z,5.52
2018-12-18T05:04:51.019Z,5.53
2018-12-18T05:05:50.963Z,5.51
2018-12-18T05:06:50.846Z,5.51
2018-12-18T05:07:50.962Z,5.5
2018-12-18T05:08:50.849Z,5.48
2018-12-18T05:09:50.682Z,5.46
2018-12-18T05:10:50.705Z,5.45
2018-12-18T05:11:50.895Z,5.4
2018-12-18T05:12:51.128Z,5.37
2018-12-18T05:13:50.802Z,5.37
2018-12-18T05:14:50.910Z,5.4
2018-12-18T05:15:50.656Z,5.42
2018-12-18T05:16:50.902Z,5.43
2018-12-18T05:17:50.691Z,5.43
2018-12-18T05:18:50.677Z,5.43
2018-12-18T05:19:51.043Z,5.42
2018-12-18T05:20:50.866Z,5.43
2018-12-18T05:21:51.479Z,5.43
2018-12-18T05:22:50.795Z,5.43
2018-12-18T05:23:50.778Z,5.41
2018-12-18T05:24:50.848Z,5.39
2018-12-18T05:25:51.083Z,5.37
2018-12-18T05:26:50.649Z,5.36
2018-12-18T05:27:50.663Z,5.36
2018-12-18T05:28:50.907Z,5.36
2018-12-18T05:29:50.772Z,5.36
2018-12-18T05:30:50.446Z,5.37
2018-12-18T05:31:50.795Z,5.37
2018-12-18T05:32:50.758Z,5.36
2018-12-18T05:33:50.828Z,5.35
2018-12-18T05:35:28.313Z,5.34
2018-12-18T05:35:50.643Z,5.33
2018-12-18T05:36:51.504Z,5.31
2018-12-18T05:37:50.821Z,5.32
2018-12-18T05:38:50.933Z,5.33
2018-12-18T05:39:51.015Z,5.33
2018-12-18T05:40:51.078Z,5.33
2018-12-18T05:41:50.811Z,5.34
2018-12-18T05:42:50.835Z,5.34
2018-12-18T05:43:50.788Z,5.35
2018-12-18T05:44:50.764Z,5.34
2018-12-18T05:45:50.818Z,5.33
2018-12-18T05:46:50.656Z,5.32
2018-12-18T05:47:50.765Z,5.32
2018-12-18T05:48:51.457Z,5.31
2018-12-18T05:49:50.883Z,5.32
2018-12-18T05:50:50.741Z,5.32
2018-12-18T05:51:50.818Z,5.31
2018-12-18T05:52:50.752Z,5.33
2018-12-18T05:53:50.730Z,5.31
2018-12-18T05:54:50.694Z,5.32
2018-12-18T05:55:50.775Z,5.32
2018-12-18T05:56:50.678Z,5.33
2018-12-18T05:57:50.602Z,5.35
2018-12-18T05:58:51.432Z,5.37
2018-12-18T05:59:51.042Z,5.37
2018-12-18T06:00:50.625Z,5.39
2018-12-18T06:01:51.173Z,5.42
2018-12-18T06:02:50.659Z,5.44
2018-12-18T06:03:50.879Z,5.46
2018-12-18T06:04:50.656Z,5.45
2018-12-18T06:05:51.177Z,5.46
2018-12-18T06:06:50.818Z,5.47
2018-12-18T06:07:50.642Z,5.48
2018-12-18T06:08:50.608Z,5.49
2018-12-18T06:09:50.788Z,5.5
2018-12-18T06:10:50.743Z,5.49
2018-12-18T06:11:50.857Z,5.48
2018-12-18T06:12:50.980Z,5.45
2018-12-18T06:13:50.663Z,5.44
2018-12-18T06:14:50.704Z,5.45
2018-12-18T06:15:50.574Z,5.46
2018-12-18T06:16:50.771Z,5.46
2018-12-18T06:17:50.571Z,5.46
2018-12-18T06:18:50.562Z,5.46
2018-12-18T06:19:50.692Z,5.44
2018-12-18T06:20:50.958Z,5.44
2018-12-18T06:21:50.580Z,5.45
2018-12-18T06:22:50.558Z,5.43
2018-12-18T06:23:51.278Z,5.45
2018-12-18T06:24:50.554Z,5.46
2018-12-18T06:25:50.561Z,5.45
2018-12-18T06:26:50.530Z,5.45
2018-12-18T06:27:50.643Z,5.44
2018-12-18T06:28:50.653Z,5.42
2018-12-18T06:29:50.538Z,5.4
2018-12-18T06:30:50.683Z,5.41
2018-12-18T06:31:50.596Z,5.42
2018-12-18T06:32:50.769Z,5.4
2018-12-18T06:33:50.569Z,5.4
2018-12-18T06:34:50.581Z,5.41
2018-12-18T06:35:50.895Z,5.44
2018-12-18T06:36:50.819Z,5.46
2018-12-18T06:37:50.713Z,5.47
2018-12-18T06:38:50.834Z,5.48
2018-12-18T06:39:51.382Z,5.48
2018-12-18T06:40:50.703Z,5.48
2018-12-18T06:41:50.595Z,5.5
2018-12-18T06:42:50.550Z,5.5
2018-12-18T06:43:50.614Z,5.5
2018-12-18T06:44:50.551Z,5.52
2018-12-18T06:45:50.693Z,5.52
2018-12-18T06:46:50.653Z,5.53
2018-12-18T06:47:50.589Z,5.53
2018-12-18T06:48:50.921Z,5.52
2018-12-18T06:49:50.632Z,5.5
2018-12-18T06:50:50.675Z,5.49
2018-12-18T06:51:51.383Z,5.52
2018-12-18T06:52:50.619Z,5.52
2018-12-18T06:53:50.595Z,5.53
2018-12-18T06:54:50.976Z,5.53
2018-12-18T06:55:50.525Z,5.55
2018-12-18T06:56:50.662Z,5.55
2018-12-18T06:57:50.695Z,5.54
2018-12-18T06:58:50.526Z,5.54
2018-12-18T06:59:50.648Z,5.55
2018-12-18T07:00:50.806Z,5.55
2018-12-18T07:01:50.582Z,5.55
2018-12-18T07:02:50.898Z,5.56
2018-12-18T07:03:50.615Z,5.56
2018-12-18T07:04:50.757Z,5.57
2018-12-18T07:05:50.847Z,5.56
2018-12-18T07:06:50.866Z,5.57
2018-12-18T07:07:57.896Z,5.57
2018-12-18T07:08:50.509Z,5.57
2018-12-18T07:09:50.757Z,5.57
2018-12-18T07:10:51.266Z,5.57
2018-12-18T07:11:50.855Z,5.57
2018-12-18T07:12:50.522Z,5.58
2018-12-18T07:13:50.764Z,5.57
2018-12-18T07:14:50.621Z,5.56
2018-12-18T07:15:50.520Z,5.55
2018-12-18T07:16:50.785Z,5.54
2018-12-18T07:17:50.712Z,5.53
2018-12-18T07:18:50.769Z,5.52
2018-12-18T07:19:50.957Z,5.55
2018-12-18T07:20:50.546Z,5.55
2018-12-18T07:21:50.810Z,5.54
2018-12-18T07:22:50.525Z,5.56
2018-12-18T07:23:50.878Z,5.57
2018-12-18T07:24:50.486Z,5.6
2018-12-18T07:25:50.497Z,5.6
2018-12-18T07:26:50.725Z,5.57
2018-12-18T07:27:50.604Z,5.55
2018-12-18T07:28:50.653Z,5.53
2018-12-18T07:29:50.605Z,5.55
2018-12-18T07:30:50.536Z,5.57
2018-12-18T07:31:50.772Z,5.58
2018-12-18T07:32:50.607Z,5.6
2018-12-18T07:33:50.513Z,5.59
2018-12-18T07:34:50.752Z,5.59
2018-12-18T07:35:50.691Z,5.59
2018-12-18T07:36:51.573Z,5.59
2018-12-18T07:37:50.633Z,5.59
2018-12-18T07:38:50.510Z,5.6
2018-12-18T07:39:50.550Z,5.61
2018-12-18T07:40:50.680Z,5.61
2018-12-18T07:41:50.657Z,5.6
2018-12-18T07:42:50.435Z,5.6
2018-12-18T07:43:50.516Z,5.61
2018-12-18T07:44:50.676Z,5.62
2018-12-18T07:45:50.508Z,5.61
2018-12-18T07:46:50.704Z,5.61
2018-12-18T07:47:50.628Z,5.62
2018-12-18T07:48:50.514Z,5.62
2018-12-18T07:49:50.453Z,5.6
2018-12-18T07:50:50.477Z,5.6
2018-12-18T07:51:50.571Z,5.6
2018-12-18T07:52:50.456Z,5.59
2018-12-18T07:53:50.538Z,5.57
2018-12-18T07:54:50.953Z,5.58
2018-12-18T07:55:50.609Z,5.58
2018-12-18T07:56:50.672Z,5.57
2018-12-18T07:57:50.459Z,5.57
2018-12-18T07:58:50.403Z,5.57
2018-12-18T07:59:50.438Z,5.6
2018-12-18T08:00:50.569Z,5.59
2018-12-18T08:01:50.434Z,5.59
2018-12-18T08:02:50.539Z,5.58
2018-12-18T08:03:50.617Z,5.59
2018-12-18T08:04:50.454Z,5.6
2018-12-18T08:05:50.434Z,5.61
2018-12-18T08:06:50.491Z,5.62
2018-12-18T08:07:50.445Z,5.62
2018-12-18T08:08:50.400Z,5.62
2018-12-18T08:09:50.555Z,5.63
2018-12-18T08:10:50.619Z,5.63
2018-12-18T08:11:50.464Z,5.64
2018-12-18T08:12:50.526Z,5.64
2018-12-18T08:13:50.822Z,5.64
2018-12-18T08:14:50.528Z,5.65
2018-12-18T08:15:51.286Z,5.65
2018-12-18T08:16:50.503Z,5.66
2018-12-18T08:17:50.615Z,5.67
2018-12-18T08:18:50.445Z,5.68
2018-12-18T08:19:50.561Z,5.67
2018-12-18T08:20:50.552Z,5.67
2018-12-18T08:21:50.625Z,5.67
2018-12-18T08:22:50.736Z,5.71
2018-12-18T08:23:50.675Z,5.71
2018-12-18T08:24:50.725Z,5.71
2018-12-18T08:25:50.428Z,5.73
2018-12-18T08:26:50.442Z,5.72
2018-12-18T08:27:50.371Z,5.74
2018-12-18T08:28:50.785Z,5.75
2018-12-18T08:29:50.564Z,5.73
2018-12-18T08:30:50.495Z,5.77
2018-12-18T08:31:50.633Z,5.76
2018-12-18T08:32:50.501Z,5.79
2018-12-18T08:33:50.649Z,5.8
2018-12-18T08:34:50.381Z,5.8
2018-12-18T08:35:50.442Z,5.8
2018-12-18T08:36:50.369Z,5.81
2018-12-18T08:37:50.409Z,5.81
2018-12-18T08:38:51.197Z,5.81
2018-12-18T08:39:50.760Z,5.81
2018-12-18T08:40:50.480Z,5.82
2018-12-18T08:41:50.592Z,5.83
2018-12-18T08:42:50.643Z,5.81
2018-12-18T08:43:50.521Z,5.83
2018-12-18T08:44:50.470Z,5.83
2018-12-18T08:45:50.445Z,5.84
2018-12-18T08:46:50.673Z,5.84
2018-12-18T08:47:50.509Z,5.85
2018-12-18T08:48:50.381Z,5.85
2018-12-18T08:49:50.456Z,5.84
2018-12-18T08:50:51.211Z,5.86
2018-12-18T08:51:50.594Z,5.87
2018-12-18T08:52:50.404Z,5.88
2018-12-18T08:53:51.202Z,5.88
2018-12-18T08:54:50.374Z,5.88
2018-12-18T08:55:50.384Z,5.88
2018-12-18T08:56:50.409Z,5.89
2018-12-18T08:57:50.565Z,5.88
2018-12-18T08:58:50.576Z,5.89
2018-12-18T08:59:51.191Z,5.89
2018-12-18T09:00:50.452Z,5.91
2018-12-18T09:01:50.351Z,5.9
2018-12-18T09:02:50.548Z,5.91
2018-12-18T09:03:50.587Z,5.9
2018-12-18T09:04:50.371Z,5.91
2018-12-18T09:05:50.386Z,5.91
2018-12-18T09:06:50.394Z,5.9
2018-12-18T09:07:50.668Z,5.91
2018-12-18T09:08:50.620Z,5.88
2018-12-18T09:09:50.475Z,5.89
2018-12-18T09:10:50.299Z,5.89
2018-12-18T09:11:50.683Z,5.9
2018-12-18T09:12:50.589Z,5.9
2018-12-18T09:13:50.400Z,5.9
2018-12-18T09:14:50.317Z,5.89
2018-12-18T09:15:50.329Z,5.89
2018-12-18T09:16:50.544Z,5.91
2018-12-18T09:17:50.510Z,5.9
2018-12-18T09:18:50.314Z,5.91
2018-12-18T09:19:50.380Z,5.92
2018-12-18T09:20:50.327Z,5.92
2018-12-18T09:21:51.107Z,5.92
2018-12-18T09:22:50.528Z,5.91
2018-12-18T09:23:51.186Z,5.92
2018-12-18T09:24:50.917Z,5.92
2018-12-18T09:25:50.358Z,5.93
2018-12-18T09:26:50.777Z,5.93
2018-12-18T09:27:50.617Z,5.91
2018-12-18T09:28:50.373Z,5.9
2018-12-18T09:29:50.309Z,5.92
2018-12-18T09:30:50.313Z,5.91
2018-12-18T09:31:50.372Z,5.92
2018-12-18T09:32:50.329Z,5.92
2018-12-18T09:33:50.540Z,5.95
2018-12-18T09:34:50.427Z,5.96
2018-12-18T09:35:50.365Z,5.93
2018-12-18T09:36:50.294Z,5.93
2018-12-18T09:37:50.682Z,5.94
2018-12-18T09:38:50.411Z,5.94
2018-12-18T09:39:50.572Z,5.94
2018-12-18T09:40:50.394Z,5.94
2018-12-18T09:41:50.331Z,5.94
2018-12-18T09:42:50.313Z,5.94
2018-12-18T09:43:50.587Z,5.93
2018-12-18T09:44:50.324Z,5.94
2018-12-18T09:45:50.416Z,5.92
2018-12-18T09:46:51.281Z,5.9
2018-12-18T09:47:50.262Z,5.89
2018-12-18T09:48:50.321Z,5.89
2018-12-18T09:49:50.303Z,5.89
2018-12-18T09:50:50.396Z,5.9
2018-12-18T09:51:50.524Z,5.9
2018-12-18T09:52:50.382Z,5.9
2018-12-18T09:53:50.333Z,5.91
2018-12-18T09:54:50.355Z,5.92
2018-12-18T09:55:50.361Z,5.9
2018-12-18T09:56:50.372Z,5.91
2018-12-18T09:57:50.296Z,5.92
2018-12-18T09:58:50.369Z,5.9
2018-12-18T09:59:50.429Z,5.9
2018-12-18T10:00:50.570Z,5.91
2018-12-18T10:01:50.956Z,5.92
2018-12-18T10:02:50.842Z,5.92
2018-12-18T10:03:50.266Z,5.92
2018-12-18T10:04:50.398Z,5.93
2018-12-18T10:05:56.705Z,5.94
2018-12-18T10:06:50.623Z,5.95
2018-12-18T10:07:50.390Z,5.96
2018-12-18T10:08:50.566Z,5.94
2018-12-18T10:09:50.616Z,5.96
2018-12-18T10:10:50.363Z,5.95
2018-12-18T10:11:50.408Z,5.95
2018-12-18T10:12:50.272Z,5.96
2018-12-18T10:13:50.382Z,5.95
2018-12-18T10:14:50.568Z,5.94
2018-12-18T10:15:50.458Z,5.94
2018-12-18T10:16:50.322Z,5.98
2018-12-18T10:17:50.646Z,5.98
2018-12-18T10:18:50.800Z,5.98
2018-12-18T10:19:50.281Z,5.99
2018-12-18T10:20:50.293Z,6
2018-12-18T10:21:50.479Z,6.01
2018-12-18T10:22:50.378Z,6.03
2018-12-18T10:23:50.275Z,6.03
2018-12-18T10:24:50.339Z,6.01
2018-12-18T10:25:51.055Z,6.02
2018-12-18T10:26:50.535Z,6.01
2018-12-18T10:27:50.394Z,6.04
2018-12-18T10:28:50.468Z,6.04
2018-12-18T10:29:50.329Z,6.04
2018-12-18T10:30:50.288Z,6.07
2018-12-18T10:31:50.386Z,6.06
2018-12-18T10:32:50.323Z,6.06
2018-12-18T10:33:50.344Z,6.08
2018-12-18T10:34:50.237Z,6.1
2018-12-18T10:35:51.087Z,6.1
2018-12-18T10:36:50.239Z,6.1
2018-12-18T10:37:50.262Z,6.09
2018-12-18T10:38:50.299Z,6.1
2018-12-18T10:39:50.628Z,6.13
2018-12-18T10:40:50.443Z,6.11
2018-12-18T10:41:50.251Z,6.13
2018-12-18T10:42:50.261Z,6.14
2018-12-18T10:43:50.620Z,6.14
2018-12-18T10:44:50.254Z,6.14
2018-12-18T10:45:50.315Z,6.14
2018-12-18T10:46:50.270Z,6.16
2018-12-18T10:47:50.332Z,6.14
2018-12-18T10:48:50.709Z,6.15
2018-12-18T10:49:51.046Z,6.15
2018-12-18T10:50:50.461Z,6.18
2018-12-18T10:51:50.322Z,6.18
2018-12-18T10:52:51.062Z,6.17
2018-12-18T10:53:50.310Z,6.19
2018-12-18T10:54:50.376Z,6.19
2018-12-18T10:55:50.226Z,6.19
2018-12-18T10:56:50.203Z,6.23
2018-12-18T10:57:50.250Z,6.17
2018-12-18T10:58:50.787Z,6.22
2018-12-18T10:59:50.545Z,6.21
2018-12-18T11:00:50.243Z,6.25
2018-12-18T11:01:51.046Z,6.21
2018-12-18T11:02:50.553Z,6.24
2018-12-18T11:03:50.488Z,6.25
2018-12-18T11:04:50.205Z,6.22
2018-12-18T11:05:50.330Z,6.18
2018-12-18T11:06:50.314Z,6.22
2018-12-18T11:07:50.282Z,6.23
2018-12-18T11:08:50.281Z,6.25
2018-12-18T11:09:50.181Z,6.28
2018-12-18T11:10:50.259Z,6.32
2018-12-18T11:11:50.227Z,6.3
2018-12-18T11:12:50.226Z,6.27
2018-12-18T11:13:50.173Z,6.3
2018-12-18T11:14:50.249Z,6.23
2018-12-18T11:15:50.239Z,6.24
2018-12-18T11:16:50.306Z,6.22
2018-12-18T11:17:50.228Z,6.29
2018-12-18T11:18:50.178Z,6.31
2018-12-18T11:19:50.199Z,6.33
2018-12-18T11:20:50.196Z,6.27
2018-12-18T11:21:50.178Z,6.34
2018-12-18T11:22:50.188Z,6.33
2018-12-18T11:23:50.382Z,6.37
2018-12-18T11:24:50.225Z,6.34
2018-12-18T11:25:50.470Z,6.33
2018-12-18T11:26:50.427Z,6.36
2018-12-18T11:27:50.303Z,6.36
2018-12-18T11:28:50.596Z,6.34
2018-12-18T11:29:50.412Z,6.33
2018-12-18T11:30:50.287Z,6.32
2018-12-18T11:31:50.408Z,6.35
2018-12-18T11:32:50.679Z,6.29
2018-12-18T11:33:50.478Z,6.3
2018-12-18T11:34:50.264Z,6.33
2018-12-18T11:35:50.328Z,6.29
2018-12-18T11:36:50.367Z,6.31
2018-12-18T11:37:50.993Z,6.33
2018-12-18T11:38:50.509Z,6.37
2018-12-18T11:39:50.300Z,6.32
2018-12-18T11:40:50.638Z,6.36
2018-12-18T11:41:50.623Z,6.34
2018-12-18T11:42:50.240Z,6.3
2018-12-18T11:43:50.190Z,6.32
2018-12-18T11:44:50.198Z,6.27
2018-12-18T11:45:50.195Z,6.31
2018-12-18T11:46:50.416Z,6.39
2018-12-18T11:47:50.559Z,6.35
2018-12-18T11:48:50.742Z,6.31
2018-12-18T11:49:50.271Z,6.31
2018-12-18T11:50:50.208Z,6.37
2018-12-18T11:51:50.385Z,6.37
2018-12-18T11:52:50.506Z,6.42
2018-12-18T11:53:50.251Z,6.37
2018-12-18T11:54:53.468Z,6.3
2018-12-18T11:55:50.143Z,6.33
2018-12-18T11:56:50.204Z,6.37
2018-12-18T11:57:50.538Z,6.32
2018-12-18T11:58:50.407Z,6.27
2018-12-18T11:59:50.195Z,6.3
2018-12-18T12:00:50.215Z,6.36
2018-12-18T12:01:50.119Z,6.32
2018-12-18T12:02:50.209Z,6.35
2018-12-18T12:03:50.371Z,6.3
2018-12-18T12:04:50.142Z,6.31
2018-12-18T12:05:50.270Z,6.31
2018-12-18T12:06:50.384Z,6.28
2018-12-18T12:07:50.152Z,6.29
2018-12-18T12:08:50.494Z,6.29
2018-12-18T12:09:50.280Z,6.29
2018-12-18T12:10:50.215Z,6.28
2018-12-18T12:11:50.211Z,6.3
2018-12-18T12:12:50.450Z,6.29
2018-12-18T12:13:50.203Z,6.3
2018-12-18T12:14:50.175Z,6.34
2018-12-18T12:15:50.183Z,6.32
2018-12-18T12:16:50.200Z,6.31
2018-12-18T12:17:50.207Z,6.29
2018-12-18T12:18:50.544Z,6.29
2018-12-18T12:19:50.665Z,6.3
2018-12-18T12:20:50.460Z,6.28
2018-12-18T12:21:50.185Z,6.27
2018-12-18T12:22:50.478Z,6.27
2018-12-18T12:23:50.233Z,6.27
2018-12-18T12:24:50.387Z,6.29
2018-12-18T12:25:50.254Z,6.26
2018-12-18T12:26:50.164Z,6.29
2018-12-18T12:27:50.288Z,6.31
2018-12-18T12:28:50.090Z,6.28
2018-12-18T12:29:50.799Z,6.26
2018-12-18T12:30:50.292Z,6.27
2018-12-18T12:31:50.135Z,6.27
2018-12-18T12:32:50.603Z,6.25
2018-12-18T12:33:50.450Z,6.25
2018-12-18T12:34:50.250Z,6.25
2018-12-18T12:35:50.879Z,6.24
2018-12-18T12:36:50.513Z,6.23
2018-12-18T12:37:50.333Z,6.22
2018-12-18T12:38:50.304Z,6.25
2018-12-18T12:39:50.158Z,6.26
2018-12-18T12:40:50.196Z,6.26
2018-12-18T12:41:50.254Z,6.23
2018-12-18T12:42:50.327Z,6.26
2018-12-18T12:43:50.076Z,6.25
2018-12-18T12:44:50.635Z,6.22
2018-12-18T12:45:50.349Z,6.23
2018-12-18T12:46:50.313Z,6.21
2018-12-18T12:47:50.414Z,6.22
2018-12-18T12:48:50.097Z,6.23
2018-12-18T12:49:50.431Z,6.23
2018-12-18T12:50:50.217Z,6.22
2018-12-18T12:51:50.075Z,6.24
2018-12-18T12:52:50.414Z,6.24
2018-12-18T12:53:50.223Z,6.2
2018-12-18T12:54:50.296Z,6.22
2018-12-18T12:55:50.304Z,6.26
2018-12-18T12:56:50.272Z,6.28
2018-12-18T12:57:50.114Z,6.28
2018-12-18T12:58:50.118Z,6.28
2018-12-18T12:59:50.316Z,6.25
2018-12-18T13:00:50.099Z,6.25
2018-12-18T13:01:50.140Z,6.27
2018-12-18T13:02:50.135Z,6.3
2018-12-18T13:03:50.325Z,6.33
2018-12-18T13:04:50.217Z,6.33
2018-12-18T13:05:50.156Z,6.35
2018-12-18T13:06:50.088Z,6.34
2018-12-18T13:07:50.406Z,6.34
2018-12-18T13:08:50.086Z,6.35
2018-12-18T13:09:50.082Z,6.4
2018-12-18T13:10:50.433Z,6.42
2018-12-18T13:11:50.232Z,6.37
2018-12-18T13:12:50.157Z,6.37
2018-12-18T13:13:50.325Z,6.29
2018-12-18T13:14:50.393Z,6.32
2018-12-18T13:15:50.891Z,6.37
2018-12-18T13:16:50.314Z,6.35
2018-12-18T13:17:50.119Z,6.34
2018-12-18T13:18:50.110Z,6.33
2018-12-18T13:19:50.084Z,6.35
2018-12-18T13:20:50.129Z,6.38
2018-12-18T13:21:50.095Z,6.36